Time;durP1;ratioP1;P1;durP2;ratioP2;P2;SDS_P1;SDS_P2;PMS_P1;PMS_P2;Temp;Humidity;BMP_temperature;BMP_pressure;BME280_temperature;BME280_humidity;BME280_pressure;Samples;Min_cycle;Max_cycle;Signal;HPM_P1;HPM_P2
2021/10/20 00:00:32;;;;;;;11.53;8.50;;;;;;;16.11;39.84;100717.16;1760940;79;21060;-61
2021/10/20 00:02:58;;;;;;;10.63;8.13;;;;;;;16.10;39.85;100710.11;1755913;80;21060;-60
2021/10/20 00:05:25;;;;;;;11.57;9.03;;;;;;;16.10;39.83;100711.45;1781481;79;21061;-61
2021/10/20 00:07:51;;;;;;;10.03;7.80;;;;;;;16.08;39.79;100720.18;1781797;80;21098;-61
2021/10/20 00:10:20;;;;;;;11.43;8.33;;;;;;;16.07;39.83;100719.84;1767712;79;21541;-62
2021/10/20 00:12:47;;;;;;;10.18;8.05;;;;;;;16.06;39.88;100721.70;1807176;78;21503;-61
2021/10/20 00:15:17;;;;;;;10.85;8.95;;;;;;;16.05;39.88;100722.73;1797583;79;21056;-59
2021/10/20 00:17:43;;;;;;;12.13;8.83;;;;;;;16.05;39.88;100725.89;1791671;79;21103;-60
2021/10/20 00:20:14;;;;;;;11.18;8.15;;;;;;;16.04;39.88;100708.16;1785042;79;21497;-60
2021/10/20 00:22:40;;;;;;;12.13;8.83;;;;;;;16.03;39.83;100701.12;1775762;79;21074;-60
2021/10/20 00:25:08;;;;;;;12.20;9.03;;;;;;;16.03;39.81;100694.42;1766902;79;21069;-61
2021/10/20 00:27:34;;;;;;;11.83;10.00;;;;;;;16.01;39.76;100689.75;1790529;79;21096;-61
2021/10/20 00:30:00;;;;;;;9.25;8.03;;;;;;;16.01;39.81;100686.58;1767680;79;21115;-61
2021/10/20 00:32:26;;;;;;;10.50;8.63;;;;;;;15.99;39.84;100677.86;1786832;79;21012;-60
2021/10/20 00:34:53;;;;;;;11.75;9.15;;;;;;;15.98;39.82;100672.19;1796542;79;21077;-60
2021/10/20 00:37:19;;;;;;;14.00;9.93;;;;;;;15.98;39.88;100675.39;1783838;79;21081;-59
2021/10/20 00:39:46;;;;;;;11.40;8.83;;;;;;;15.97;39.85;100678.55;1766522;79;21025;-61
2021/10/20 00:42:12;;;;;;;12.40;8.88;;;;;;;15.97;39.88;100685.77;1781024;79;21878;-60
2021/10/20 00:44:49;;;;;;;12.15;9.30;;;;;;;15.96;39.85;100682.78;1776403;79;21006;-60
2021/10/20 00:47:16;;;;;;;13.78;9.18;;;;;;;15.95;39.84;100685.94;1786741;79;21509;-60
2021/10/20 00:49:43;;;;;;;10.95;8.55;;;;;;;15.94;39.83;100687.48;1785153;79;21025;-60
2021/10/20 00:52:11;;;;;;;13.18;9.75;;;;;;;15.92;39.84;100685.80;1779159;79;21042;-60
2021/10/20 00:54:37;;;;;;;13.08;9.30;;;;;;;15.91;39.81;100684.13;1787741;79;21860;-60
2021/10/20 00:57:05;;;;;;;10.95;8.78;;;;;;;15.91;39.85;100676.59;1777472;79;21313;-60
2021/10/20 00:59:39;;;;;;;11.83;9.75;;;;;;;15.89;39.81;100678.11;1799183;79;21028;-61
2021/10/20 01:02:07;;;;;;;12.20;9.28;;;;;;;15.89;39.81;100683.98;1799709;79;21016;-61
2021/10/20 01:04:33;;;;;;;10.68;8.93;;;;;;;15.88;39.80;100691.20;1786045;79;21110;-60
2021/10/20 01:06:59;;;;;;;12.85;8.90;;;;;;;15.86;39.81;100683.02;1788261;79;21141;-61
2021/10/20 01:09:26;;;;;;;11.83;9.20;;;;;;;15.86;39.83;100683.84;1761911;79;21016;-59
2021/10/20 01:11:53;;;;;;;11.30;8.30;;;;;;;15.85;39.84;100679.48;1753555;80;21508;-61
2021/10/20 01:14:21;;;;;;;11.25;9.20;;;;;;;15.84;39.78;100683.20;1731020;81;21038;-60
2021/10/20 01:16:48;;;;;;;12.40;9.88;;;;;;;15.83;39.77;100681.52;1730532;81;21048;-61
2021/10/20 01:19:15;;;;;;;11.45;9.08;;;;;;;15.82;39.82;100674.99;1804109;78;21121;-60
2021/10/20 01:21:42;;;;;;;10.85;9.40;;;;;;;15.81;39.79;100669.33;1835309;78;21045;-59
2021/10/20 01:24:08;;;;;;;14.30;9.70;;;;;;;15.79;39.83;100660.13;1830228;77;20981;-59
2021/10/20 01:26:35;;;;;;;11.22;9.15;;;;;;;15.78;39.76;100660.30;1848009;77;21083;-60
2021/10/20 01:29:01;;;;;;;12.53;9.18;;;;;;;15.77;39.78;100656.79;1841423;77;21020;-60
2021/10/20 01:31:28;;;;;;;15.13;10.25;;;;;;;15.76;39.78;100649.78;1804120;78;21093;-60
2021/10/20 01:33:54;;;;;;;12.58;9.50;;;;;;;15.76;39.80;100655.14;1817050;78;21196;-60
2021/10/20 01:36:20;;;;;;;13.95;10.40;;;;;;;15.74;39.82;100649.09;1813885;77;20999;-60
2021/10/20 01:38:49;;;;;;;11.05;8.98;;;;;;;15.74;39.81;100653.12;1836779;77;21053;-60
2021/10/20 01:41:15;;;;;;;12.13;9.58;;;;;;;15.73;39.77;100655.48;1833897;78;21576;-61
2021/10/20 01:43:43;;;;;;;12.63;9.68;;;;;;;15.71;39.83;100658.82;1821389;78;21137;-60
2021/10/20 01:46:11;;;;;;;13.05;9.23;;;;;;;15.71;39.85;100660.16;1814947;77;21569;-59
2021/10/20 01:48:37;;;;;;;11.75;9.95;;;;;;;15.70;39.84;100662.50;1825463;78;21532;-60
2021/10/20 01:51:04;;;;;;;12.90;9.83;;;;;;;15.68;39.86;100661.36;1823695;77;21016;-61
2021/10/20 01:53:31;;;;;;;11.45;9.90;;;;;;;15.67;39.83;100662.88;1831435;77;21012;-61
2021/10/20 01:55:58;;;;;;;11.85;9.43;;;;;;;15.67;39.83;100666.38;1813656;78;21505;-59
2021/10/20 01:58:24;;;;;;;12.43;9.35;;;;;;;15.67;39.80;100671.73;1806634;78;21017;-60
2021/10/20 02:00:50;;;;;;;10.15;8.85;;;;;;;15.66;39.86;100672.73;1818788;78;20989;-60
2021/10/20 02:03:17;;;;;;;12.63;9.10;;;;;;;15.65;39.81;100676.44;1846614;77;21552;-61
2021/10/20 02:05:44;;;;;;;13.50;10.05;;;;;;;15.65;39.88;100684.47;1815888;78;21006;-60
2021/10/20 02:08:10;;;;;;;11.55;8.85;;;;;;;15.64;39.89;100673.94;1820069;78;21810;-61
2021/10/20 02:10:36;;;;;;;12.55;9.43;;;;;;;15.63;39.88;100670.94;1817734;77;21004;-60
2021/10/20 02:13:03;;;;;;;13.90;9.35;;;;;;;15.62;39.90;100671.42;1821469;77;21020;-61
2021/10/20 02:15:31;;;;;;;10.08;8.43;;;;;;;15.61;39.84;100674.31;1817732;78;21069;-61
2021/10/20 02:17:58;;;;;;;12.35;9.80;;;;;;;15.60;39.85;100667.27;1813949;78;22042;-60
2021/10/20 02:20:25;;;;;;;12.82;9.30;;;;;;;15.60;39.81;100663.25;1819767;78;21218;-61
2021/10/20 02:22:51;;;;;;;13.80;10.45;;;;;;;15.59;39.84;100670.46;1821487;78;21024;-60
2021/10/20 02:25:17;;;;;;;13.20;9.48;;;;;;;15.58;39.86;100661.26;1824823;77;21008;-59
2021/10/20 02:27:44;;;;;;;12.13;9.85;;;;;;;15.57;39.86;100662.26;1827228;78;21685;-61
2021/10/20 02:30:11;;;;;;;12.03;9.75;;;;;;;15.57;39.82;100667.61;1817798;78;21630;-61
2021/10/20 02:32:38;;;;;;;12.13;9.43;;;;;;;15.56;39.80;100669.47;1824589;78;21143;-61
2021/10/20 02:35:06;;;;;;;12.53;9.70;;;;;;;15.54;39.84;100664.80;1819920;78;21018;-60
2021/10/20 02:37:34;;;;;;;12.13;9.85;;;;;;;15.53;39.88;100669.33;1816801;78;21041;-60
2021/10/20 02:40:01;;;;;;;12.28;9.78;;;;;;;15.52;39.88;100665.48;1814276;77;21474;-60
2021/10/20 02:42:28;;;;;;;11.15;9.13;;;;;;;15.52;39.84;100660.13;1816651;77;21479;-60
2021/10/20 02:44:54;;;;;;;12.20;9.43;;;;;;;15.51;39.86;100663.80;1828094;78;21124;-59
2021/10/20 02:47:20;;;;;;;12.40;9.65;;;;;;;15.51;39.87;100666.48;1819925;78;21010;-60
2021/10/20 02:49:47;;;;;;;12.47;9.58;;;;;;;15.49;39.84;100670.70;1802880;78;21057;-59
2021/10/20 02:52:14;;;;;;;12.60;9.50;;;;;;;15.50;39.81;100679.55;1823970;78;21056;-60
2021/10/20 02:54:41;;;;;;;11.93;9.28;;;;;;;15.49;39.83;100677.39;1811862;78;21016;-60
2021/10/20 02:57:07;;;;;;;11.38;9.08;;;;;;;15.48;39.83;100682.41;1813724;78;21149;-59
2021/10/20 02:59:33;;;;;;;13.10;9.78;;;;;;;15.47;39.84;100680.75;1824275;77;21030;-60
2021/10/20 03:02:00;;;;;;;11.50;9.33;;;;;;;15.47;39.87;100683.91;1815894;77;21002;-59
2021/10/20 03:04:26;;;;;;;10.40;8.53;;;;;;;15.46;39.84;100688.44;1830970;77;21064;-60
2021/10/20 03:06:52;;;;;;;12.40;9.13;;;;;;;15.46;39.85;100684.42;1834247;77;20982;-60
2021/10/20 03:09:20;;;;;;;9.60;8.58;;;;;;;15.46;39.81;100686.28;1810513;77;21122;-60
2021/10/20 03:11:46;;;;;;;11.83;8.78;;;;;;;15.44;39.82;100676.25;1827869;77;21011;-61
2021/10/20 03:14:14;;;;;;;11.33;8.53;;;;;;;15.44;39.80;100670.38;1824987;77;21025;-60
2021/10/20 03:16:42;;;;;;;11.45;8.48;;;;;;;15.44;39.79;100669.56;1817442;77;21009;-60
2021/10/20 03:19:08;;;;;;;11.08;8.95;;;;;;;15.44;39.83;100669.56;1829984;78;20995;-60
2021/10/20 03:21:35;;;;;;;10.93;9.25;;;;;;;15.44;39.88;100669.56;1821648;77;21057;-60
2021/10/20 03:24:01;;;;;;;10.70;8.70;;;;;;;15.43;39.82;100667.87;1839970;77;21581;-60
2021/10/20 03:26:27;;;;;;;11.40;8.35;;;;;;;15.43;39.83;100668.73;1818715;77;21039;-60
2021/10/20 03:28:54;;;;;;;11.12;8.48;;;;;;;15.41;39.85;100669.38;1831478;77;21026;-60
2021/10/20 03:31:20;;;;;;;13.43;8.43;;;;;;;15.42;39.83;100672.41;1836063;78;20982;-59
2021/10/20 03:33:47;;;;;;;10.43;8.00;;;;;;;15.42;39.79;100663.55;1836219;78;21946;-60
2021/10/20 03:36:13;;;;;;;11.35;8.48;;;;;;;15.41;39.79;100662.69;1821603;77;21000;-61
2021/10/20 03:38:40;;;;;;;10.55;8.10;;;;;;;15.41;39.75;100664.03;1833992;77;20994;-60
2021/10/20 03:41:06;;;;;;;10.23;7.25;;;;;;;15.42;39.76;100660.87;1811060;77;20955;-61
2021/10/20 03:43:34;;;;;;;9.70;8.05;;;;;;;15.41;39.74;100654.66;1834964;78;21092;-60
2021/10/20 03:46:00;;;;;;;8.68;7.22;;;;;;;15.41;39.73;100657.85;1824563;78;21176;-60
2021/10/20 03:48:26;;;;;;;10.50;7.97;;;;;;;15.41;39.74;100654.66;1830943;78;21576;-61
2021/10/20 03:50:53;;;;;;;9.08;7.90;;;;;;;15.41;39.78;100660.02;1812070;77;22045;-59
2021/10/20 03:53:19;;;;;;;9.80;7.22;;;;;;;15.40;39.73;100650.33;1819040;77;21022;-60
2021/10/20 03:55:46;;;;;;;9.20;7.28;;;;;;;15.40;39.73;100650.84;1824984;77;21011;-60
2021/10/20 03:58:12;;;;;;;10.10;7.53;;;;;;;15.40;39.71;100657.03;1817265;78;21480;-60
2021/10/20 04:00:38;;;;;;;9.13;7.22;;;;;;;15.40;39.70;100653.01;1813884;77;20987;-60
2021/10/20 04:03:05;;;;;;;9.58;7.35;;;;;;;15.41;39.72;100653.84;1817312;77;21052;-60
2021/10/20 04:05:31;;;;;;;9.40;7.50;;;;;;;15.40;39.68;100657.54;1841007;77;21076;-60
2021/10/20 04:07:58;;;;;;;9.08;6.95;;;;;;;15.40;39.65;100657.03;1815462;78;21517;-60
2021/10/20 04:10:29;;;;;;;8.05;6.72;;;;;;;15.40;39.64;100653.52;1812482;77;21277;-60
2021/10/20 04:12:54;;;;;;;10.10;7.15;;;;;;;15.40;39.65;100651.67;1839092;76;21001;-60
2021/10/20 04:15:22;;;;;;;8.98;7.33;;;;;;;15.40;39.63;100649.51;1821320;77;21041;-60
2021/10/20 04:17:49;;;;;;;8.85;6.80;;;;;;;15.39;39.58;100619.20;1845031;76;21013;-59
2021/10/20 04:20:18;;;;;;;8.23;7.00;;;;;;;15.39;39.60;100619.72;1835230;77;21092;-60
2021/10/20 04:22:45;;;;;;;10.28;7.17;;;;;;;15.39;39.59;100623.73;1813446;77;21807;-59
2021/10/20 04:25:11;;;;;;;9.65;7.37;;;;;;;15.39;39.58;100633.10;1823485;77;21013;-59
2021/10/20 04:27:42;;;;;;;11.18;6.97;;;;;;;15.38;39.55;100628.26;1847452;77;21014;-60
2021/10/20 04:30:10;;;;;;;8.90;6.58;;;;;;;15.37;39.54;100614.53;1847456;77;21478;-60
2021/10/20 04:32:37;;;;;;;9.25;6.90;;;;;;;15.38;39.55;100617.55;1823067;76;21071;-61
2021/10/20 04:35:04;;;;;;;8.88;7.10;;;;;;;15.39;39.53;100621.05;1853458;77;21005;-61
2021/10/20 04:37:31;;;;;;;8.88;6.55;;;;;;;15.38;39.51;100622.91;1829955;77;21016;-60
2021/10/20 04:39:58;;;;;;;8.48;6.58;;;;;;;15.38;39.52;100626.92;1829340;77;21556;-60
2021/10/20 04:42:27;;;;;;;8.08;6.70;;;;;;;15.38;39.49;100620.23;1800520;77;21057;-60
2021/10/20 04:44:56;;;;;;;7.83;6.65;;;;;;;15.37;39.53;100618.55;1845489;77;21017;-60
2021/10/20 04:47:22;;;;;;;8.48;6.55;;;;;;;15.38;39.51;100620.23;1851061;77;21120;-61
2021/10/20 04:49:48;;;;;;;7.62;6.20;;;;;;;15.38;39.51;100617.55;1854510;77;20997;-61
2021/10/20 04:52:15;;;;;;;8.78;6.45;;;;;;;15.38;39.52;100618.89;1856802;77;21024;-61
2021/10/20 04:54:42;;;;;;;8.60;6.67;;;;;;;15.38;39.47;100616.72;1856107;77;20994;-60
2021/10/20 04:57:08;;;;;;;7.83;6.05;;;;;;;15.37;39.48;100606.50;1823895;77;21001;-60
2021/10/20 04:59:35;;;;;;;8.65;6.05;;;;;;;15.37;39.47;100610.52;1824495;76;21119;-61
2021/10/20 05:02:03;;;;;;;10.40;6.03;;;;;;;15.38;39.49;100610.86;1845942;76;21036;-61
2021/10/20 05:04:30;;;;;;;7.53;6.00;;;;;;;15.39;39.48;100607.66;1849057;77;20993;-61
2021/10/20 05:06:57;;;;;;;7.90;6.45;;;;;;;15.39;39.46;100598.30;1820111;76;21056;-62
2021/10/20 05:09:24;;;;;;;7.10;5.70;;;;;;;15.39;39.45;100597.78;1826540;77;21001;-59
2021/10/20 05:11:50;;;;;;;7.03;6.30;;;;;;;15.40;39.50;100602.66;1819415;77;21095;-60
2021/10/20 05:14:16;;;;;;;7.50;6.20;;;;;;;15.40;39.46;100602.66;1820724;77;20998;-61
2021/10/20 05:16:43;;;;;;;6.83;5.67;;;;;;;15.40;39.46;100596.78;1818850;78;21103;-61
2021/10/20 05:19:11;;;;;;;7.33;5.80;;;;;;;15.40;39.41;100594.11;1809072;78;21344;-61
2021/10/20 05:21:37;;;;;;;5.95;5.30;;;;;;;15.39;39.42;100597.78;1818707;77;21036;-60
2021/10/20 05:24:04;;;;;;;7.25;5.97;;;;;;;15.41;39.41;100598.44;1825183;77;21117;-60
2021/10/20 05:26:30;;;;;;;6.87;5.70;;;;;;;15.42;39.38;100596.61;1830359;78;21049;-60
2021/10/20 05:28:56;;;;;;;6.40;5.58;;;;;;;15.42;39.37;100598.78;1826060;77;21490;-60
2021/10/20 05:31:23;;;;;;;6.67;5.05;;;;;;;15.43;39.35;100587.55;1829503;78;21555;-59
2021/10/20 05:33:49;;;;;;;7.30;5.22;;;;;;;15.42;39.33;100594.77;1821859;78;21017;-61
2021/10/20 05:36:15;;;;;;;8.23;5.35;;;;;;;15.43;39.31;100584.39;1833486;77;21121;-61
2021/10/20 05:38:42;;;;;;;5.87;4.65;;;;;;;15.44;39.33;100587.38;1817872;77;21087;-60
2021/10/20 05:41:08;;;;;;;7.72;5.67;;;;;;;15.45;39.37;100576.16;1797438;78;21001;-61
2021/10/20 05:43:34;;;;;;;6.35;4.80;;;;;;;15.45;39.29;100583.70;1790192;78;21462;-62
2021/10/20 05:46:01;;;;;;;6.97;5.22;;;;;;;15.47;39.25;100583.02;1810375;78;21109;-61
2021/10/20 05:48:27;;;;;;;7.72;5.72;;;;;;;15.47;39.23;100583.50;1837123;77;21093;-60
2021/10/20 05:50:53;;;;;;;6.20;5.00;;;;;;;15.47;39.20;100582.16;1846283;77;21030;-60
2021/10/20 05:53:20;;;;;;;6.37;5.53;;;;;;;15.47;39.20;100596.41;1830486;77;21532;-61
2021/10/20 05:55:46;;;;;;;7.17;5.60;;;;;;;15.49;39.22;100582.33;1836671;77;21006;-61
2021/10/20 05:58:13;;;;;;;7.12;5.45;;;;;;;15.50;39.21;100567.09;1836186;77;21024;-62
2021/10/20 06:00:40;;;;;;;6.62;4.80;;;;;;;15.52;39.17;100570.41;1828160;78;21132;-61
2021/10/20 06:03:06;;;;;;;6.87;5.17;;;;;;;15.52;39.13;100583.80;1816830;77;21025;-61
2021/10/20 06:05:33;;;;;;;6.65;5.40;;;;;;;15.52;39.08;100559.19;1825249;77;21043;-61
2021/10/20 06:07:59;;;;;;;7.15;5.67;;;;;;;15.53;39.06;100550.16;1820642;77;21532;-62
2021/10/20 06:10:25;;;;;;;7.97;5.80;;;;;;;15.54;39.01;100560.35;1814766;77;22333;-60
2021/10/20 06:12:51;;;;;;;6.80;4.97;;;;;;;15.55;38.98;100566.05;1838939;77;21062;-62
2021/10/20 06:15:24;;;;;;;7.55;5.45;;;;;;;15.56;38.99;100566.36;1840454;77;20990;-62
2021/10/20 06:17:46;;;;;;;6.58;4.90;;;;;;;15.57;38.95;100560.48;1812100;77;21529;-61
2021/10/20 06:20:13;;;;;;;7.83;5.45;;;;;;;15.57;38.93;100556.47;1768371;80;21042;-59
2021/10/20 06:22:41;;;;;;;7.83;5.37;;;;;;;15.58;38.90;100553.62;1746594;80;21092;-62
2021/10/20 06:25:11;;;;;;;8.33;5.42;;;;;;;15.58;38.89;100554.14;1747419;80;21187;-60
2021/10/20 06:27:41;;;;;;;7.55;5.30;;;;;;;15.59;38.87;100545.06;1777211;80;21093;-63
2021/10/20 06:30:09;;;;;;;6.87;5.12;;;;;;;15.60;38.87;100544.07;1778348;80;20985;-61
2021/10/20 06:32:36;;;;;;;6.20;5.50;;;;;;;15.60;38.86;100539.53;1753691;80;20994;-60
2021/10/20 06:35:04;;;;;;;6.83;5.55;;;;;;;15.63;38.85;100550.42;1806062;79;21029;-61
2021/10/20 06:37:32;;;;;;;6.90;5.47;;;;;;;15.65;38.81;100540.35;1771703;79;21093;-61
2021/10/20 06:40:00;;;;;;;6.47;5.10;;;;;;;15.66;38.80;100536.64;1804635;79;21042;-61
2021/10/20 06:42:28;;;;;;;6.62;5.35;;;;;;;15.67;38.80;100538.33;1779227;80;21041;-61
2021/10/20 06:44:56;;;;;;;6.22;5.08;;;;;;;15.69;38.80;100522.90;1778312;79;21001;-61
2021/10/20 06:47:25;;;;;;;6.95;5.20;;;;;;;15.70;38.79;100521.87;1769128;79;21031;-61
2021/10/20 06:49:52;;;;;;;6.92;5.33;;;;;;;15.72;38.77;100517.16;1762449;80;21140;-61
2021/10/20 06:52:19;;;;;;;5.72;4.83;;;;;;;15.73;38.79;100513.51;1759557;79;21052;-62
2021/10/20 06:54:45;;;;;;;6.62;5.10;;;;;;;15.75;38.75;100518.17;1757062;80;20999;-61
2021/10/20 06:57:12;;;;;;;8.05;5.05;;;;;;;15.76;38.75;100513.16;1756266;80;21014;-63
2021/10/20 06:59:39;;;;;;;7.92;5.58;;;;;;;15.79;38.75;100506.59;1800304;79;21028;-61
2021/10/20 07:02:05;;;;;;;7.60;5.10;;;;;;;15.81;38.76;100513.42;1777047;80;21133;-61
2021/10/20 07:04:32;;;;;;;6.70;5.15;;;;;;;15.84;38.70;100506.85;1748097;81;21144;-61
2021/10/20 07:06:59;;;;;;;6.33;5.42;;;;;;;15.85;38.71;100505.33;1776719;80;21021;-60
2021/10/20 07:09:26;;;;;;;7.87;5.28;;;;;;;15.86;38.70;100511.03;1771643;80;21065;-61
2021/10/20 07:11:54;;;;;;;8.85;5.42;;;;;;;15.88;38.69;100504.16;1759768;79;21048;-60
2021/10/20 07:14:20;;;;;;;7.03;4.95;;;;;;;15.89;38.67;100490.55;1759022;80;21082;-61
2021/10/20 07:16:47;;;;;;;7.83;6.28;;;;;;;15.90;38.66;100494.91;1770835;80;21026;-60
2021/10/20 07:19:14;;;;;;;6.55;4.85;;;;;;;15.91;38.66;100493.88;1765965;80;21124;-61
2021/10/20 07:21:40;;;;;;;7.47;6.12;;;;;;;15.93;38.68;100493.70;1784649;80;21002;-61
2021/10/20 07:24:07;;;;;;;6.92;5.47;;;;;;;15.94;38.67;100490.02;1769346;80;21006;-63
2021/10/20 07:26:34;;;;;;;6.78;5.97;;;;;;;15.96;38.66;100493.34;1731685;81;22057;-62
2021/10/20 07:29:00;;;;;;;6.22;5.00;;;;;;;15.98;38.68;100491.82;1756394;80;20998;-62
2021/10/20 07:31:29;;;;;;;8.00;5.40;;;;;;;15.99;38.67;100486.77;1765007;80;21025;-60
2021/10/20 07:33:56;;;;;;;6.70;5.70;;;;;;;16.00;38.68;100484.42;1758249;80;21079;-61
2021/10/20 07:36:23;;;;;;;7.00;5.50;;;;;;;16.02;38.67;100483.73;1765374;80;21054;-61
2021/10/20 07:38:50;;;;;;;7.40;5.67;;;;;;;16.03;38.68;100487.57;1790627;79;21060;-61
2021/10/20 07:41:17;;;;;;;5.95;5.35;;;;;;;16.05;38.68;100483.34;1809934;77;21017;-61
2021/10/20 07:43:44;;;;;;;7.15;5.85;;;;;;;16.06;38.66;100490.38;1830732;78;21021;-63
2021/10/20 07:46:10;;;;;;;7.65;5.90;;;;;;;16.07;38.69;100486.18;1829368;78;20982;-61
2021/10/20 07:48:37;;;;;;;8.13;5.87;;;;;;;16.09;38.68;100488.16;1830340;78;22069;-61
2021/10/20 07:51:03;;;;;;;6.22;5.40;;;;;;;16.11;38.70;100471.90;1826195;78;21124;-61
2021/10/20 07:53:31;;;;;;;6.70;5.83;;;;;;;16.13;38.68;100481.92;1830876;77;21536;-61
2021/10/20 07:55:57;;;;;;;7.00;6.30;;;;;;;16.15;38.69;100471.84;1831532;77;21045;-60
2021/10/20 07:58:24;;;;;;;5.65;5.05;;;;;;;16.18;38.67;100463.41;1819947;77;21072;-63
2021/10/20 08:00:51;;;;;;;6.97;5.28;;;;;;;16.19;38.70;100463.75;1822197;77;21089;-62
2021/10/20 08:03:17;;;;;;;6.83;5.25;;;;;;;16.21;38.69;100464.39;1822532;77;21049;-63
2021/10/20 08:05:44;;;;;;;6.85;5.58;;;;;;;16.25;38.69;100462.99;1831927;77;21038;-62
2021/10/20 08:08:10;;;;;;;7.72;5.60;;;;;;;16.28;38.70;100464.45;1835951;77;20975;-60
2021/10/20 08:10:40;;;;;;;8.88;5.83;;;;;;;16.31;38.68;100462.75;1831832;77;21026;-62
2021/10/20 08:13:07;;;;;;;8.23;6.12;;;;;;;16.36;38.70;100464.37;1820230;77;21012;-62
2021/10/20 08:15:35;;;;;;;8.70;6.00;;;;;;;16.40;38.69;100454.92;1843778;77;21806;-63
2021/10/20 08:18:04;;;;;;;5.78;4.95;;;;;;;16.44;38.68;100454.05;1831275;77;21540;-63
2021/10/20 08:20:34;;;;;;;9.15;6.05;;;;;;;16.50;38.71;100437.19;1837655;77;21056;-62
2021/10/20 08:23:02;;;;;;;6.87;5.80;;;;;;;16.53;38.71;100434.11;1844805;77;21046;-61
2021/10/20 08:25:28;;;;;;;7.22;5.47;;;;;;;16.57;38.67;100419.30;1822670;77;21001;-70
2021/10/20 08:28:01;;;;;;;5.85;5.22;;;;;;;16.64;38.68;100422.06;1824754;77;21037;-62
2021/10/20 08:30:27;;;;;;;7.70;6.12;;;;;;;16.68;38.70;100430.04;1824742;77;21076;-62
2021/10/20 08:32:55;;;;;;;7.20;5.30;;;;;;;16.73;38.73;100418.72;1835924;77;21103;-63
2021/10/20 08:35:22;;;;;;;7.22;5.67;;;;;;;16.77;38.73;100418.69;1814071;77;21049;-62
2021/10/20 08:37:56;;;;;;;7.53;5.55;;;;;;;16.82;38.73;100405.53;1810357;77;21073;-61
2021/10/20 08:40:29;;;;;;;6.95;6.20;;;;;;;16.87;38.68;100424.06;1799284;78;21120;-62
2021/10/20 08:42:58;;;;;;;6.87;6.10;;;;;;;16.93;38.67;100413.07;1817061;77;21490;-61
2021/10/20 08:45:27;;;;;;;7.65;5.87;;;;;;;16.99;38.71;100405.58;1843182;77;21050;-63
2021/10/20 08:47:53;;;;;;;7.33;5.80;;;;;;;17.04;38.72;100407.18;1809005;77;21065;-69
2021/10/20 08:50:29;;;;;;;7.28;5.62;;;;;;;17.10;38.79;100416.31;1826959;77;21108;-62
2021/10/20 08:52:56;;;;;;;10.30;6.53;;;;;;;17.16;38.80;100400.77;1816705;77;21194;-61
2021/10/20 08:55:22;;;;;;;6.55;5.53;;;;;;;17.22;38.82;100401.84;1811116;77;21048;-61
2021/10/20 08:57:49;;;;;;;6.00;5.20;;;;;;;17.28;38.77;100388.97;1834080;77;20956;-62
2021/10/20 09:00:17;;;;;;;7.47;6.47;;;;;;;17.34;38.84;100393.55;1831886;77;21071;-63
2021/10/20 09:02:46;;;;;;;7.40;6.22;;;;;;;17.41;38.79;100389.58;1821501;77;21085;-62
2021/10/20 09:05:19;;;;;;;7.67;6.25;;;;;;;17.47;38.77;100378.86;1805991;77;21126;-61
2021/10/20 09:07:48;;;;;;;7.28;5.60;;;;;;;17.54;38.61;100368.66;1828796;77;20991;-62
2021/10/20 09:10:15;;;;;;;7.50;5.58;;;;;;;17.59;38.56;100377.79;1844245;77;21219;-64
2021/10/20 09:12:41;;;;;;;7.95;6.45;;;;;;;17.64;38.55;100380.72;1835925;77;21049;-63
2021/10/20 09:15:19;;;;;;;6.10;5.15;;;;;;;17.69;38.54;100372.91;1811682;77;21038;-62
2021/10/20 09:18:03;;;;;;;8.30;6.42;;;;;;;17.74;38.47;100380.35;1812174;77;21083;-62
2021/10/20 09:20:37;;;;;;;6.12;5.50;;;;;;;17.81;38.42;100364.24;1813751;77;20999;-57
2021/10/20 09:23:18;;;;;;;7.03;5.37;;;;;;;17.88;38.41;100371.86;1825206;77;21100;-60
2021/10/20 09:25:56;;;;;;;7.50;5.75;;;;;;;17.95;38.41;100374.59;1821368;77;20963;-61
2021/10/20 09:28:32;;;;;;;7.85;6.53;;;;;;;18.01;38.44;100355.78;1826370;77;21037;-61
2021/10/20 09:31:01;;;;;;;6.75;6.00;;;;;;;18.07;38.44;100360.34;1835678;77;21113;-62
2021/10/20 09:33:26;;;;;;;6.83;6.12;;;;;;;18.15;38.42;100352.61;1810562;77;21084;-61
2021/10/20 09:35:53;;;;;;;7.72;6.22;;;;;;;18.23;38.40;100345.72;1818305;76;21603;-69
2021/10/20 09:38:20;;;;;;;6.65;5.95;;;;;;;18.30;38.37;100348.94;1828544;77;21065;-62
2021/10/20 09:40:48;;;;;;;7.58;5.92;;;;;;;18.38;38.32;100339.33;1808250;77;21113;-61
2021/10/20 09:43:22;;;;;;;8.35;5.87;;;;;;;18.46;38.35;100324.33;1812421;77;21523;-61
2021/10/20 09:45:47;;;;;;;8.50;6.35;;;;;;;18.55;38.35;100323.09;1811107;79;21071;-61
2021/10/20 09:48:19;;;;;;;7.28;6.28;;;;;;;18.63;38.33;100313.47;1812574;79;21059;-61
2021/10/20 09:51:07;;;;;;;7.17;6.17;;;;;;;18.72;38.29;100329.43;1790617;79;21078;-61
2021/10/20 09:53:40;;;;;;;8.58;6.20;;;;;;;18.80;38.34;100315.78;1831892;77;20994;-62
2021/10/20 09:56:31;;;;;;;7.75;6.22;;;;;;;18.86;38.23;100322.50;1812995;79;21169;-61
2021/10/20 09:58:58;;;;;;;6.95;6.00;;;;;;;18.93;38.23;100314.43;1812636;79;22053;-62
2021/10/20 10:01:27;;;;;;;6.67;5.50;;;;;;;18.99;38.18;100345.08;1814221;77;21078;-62
2021/10/20 10:03:57;;;;;;;6.47;5.80;;;;;;;19.04;38.14;100323.72;1845226;77;21028;-61
2021/10/20 10:06:23;;;;;;;7.35;5.85;;;;;;;19.11;38.13;100294.10;1824447;77;21091;-70
2021/10/20 10:08:49;;;;;;;6.72;5.72;;;;;;;19.16;38.17;100296.48;1845307;77;21024;-62
2021/10/20 10:11:17;;;;;;;7.30;5.97;;;;;;;19.23;38.16;100285.67;1852659;76;21053;-62
2021/10/20 10:13:55;;;;;;;7.75;5.80;;;;;;;19.26;38.11;100274.48;1859605;77;20985;-62
2021/10/20 10:16:23;;;;;;;7.53;5.85;;;;;;;19.31;38.08;100292.16;1859597;77;21044;-62
2021/10/20 10:18:53;;;;;;;7.10;5.97;;;;;;;19.32;38.06;100288.45;1856750;77;21011;-62
2021/10/20 10:21:41;;;;;;;6.80;5.80;;;;;;;19.35;38.01;100270.49;1856536;77;21301;-60
2021/10/20 10:27:10;;;;;;;6.65;5.95;;;;;;;19.40;37.98;100269.88;1854670;76;27908;-62
2021/10/20 10:30:04;;;;;;;8.25;6.30;;;;;;;19.38;37.94;100266.56;1777999;78;20987;-63
2021/10/20 10:32:37;;;;;;;6.65;5.60;;;;;;;19.38;37.97;100259.30;1782562;80;21085;-65
2021/10/20 10:35:08;;;;;;;6.83;6.10;;;;;;;19.39;37.98;100258.77;1782428;80;20993;-60
2021/10/20 10:37:36;;;;;;;7.40;5.60;;;;;;;19.38;37.99;100241.80;1782157;80;21071;-62
2021/10/20 10:40:19;;;;;;;7.17;5.75;;;;;;;19.39;38.02;100243.46;1782466;80;21093;-62
2021/10/20 10:42:47;;;;;;;7.35;5.90;;;;;;;19.41;38.07;100236.48;1782633;78;26905;-61
2021/10/20 10:45:17;;;;;;;7.08;5.60;;;;;;;19.42;38.10;100232.23;1822171;78;23240;-60
2021/10/20 10:48:05;;;;;;;6.08;5.42;;;;;;;19.44;38.09;100228.80;1826282;78;21022;-61
2021/10/20 10:50:43;;;;;;;7.55;5.95;;;;;;;19.48;38.09;100237.82;1826605;78;21179;-62
2021/10/20 10:53:28;;;;;;;6.72;5.53;;;;;;;19.49;38.07;100226.84;1826516;78;21069;-63
2021/10/20 10:56:08;;;;;;;8.48;5.83;;;;;;;19.51;38.06;100226.59;1803312;78;21041;-62
2021/10/20 10:59:02;;;;;;;7.92;6.42;;;;;;;19.52;38.03;100217.48;1782577;80;21101;-61
2021/10/20 11:01:47;;;;;;;6.50;5.35;;;;;;;19.53;38.08;100199.76;1808578;78;20985;-61
2021/10/20 11:04:27;;;;;;;6.40;5.60;;;;;;;19.55;38.09;100200.90;1826798;78;21084;-62
2021/10/20 11:06:54;;;;;;;7.45;5.83;;;;;;;19.57;38.09;100204.20;1826300;78;21070;-62
2021/10/20 11:09:32;;;;;;;6.47;5.80;;;;;;;19.58;38.08;100203.96;1823805;78;21075;-62
2021/10/20 11:12:01;;;;;;;8.03;5.75;;;;;;;19.59;38.09;100198.08;1782547;80;21198;-62
2021/10/20 11:14:29;;;;;;;6.65;5.83;;;;;;;19.59;38.10;100206.98;1782646;80;21045;-62
2021/10/20 11:17:01;;;;;;;8.60;6.37;;;;;;;19.61;38.07;100190.59;1782410;80;21043;-62
2021/10/20 11:19:27;;;;;;;6.22;5.60;;;;;;;19.61;38.09;100182.52;1790871;78;21496;-62
2021/10/20 11:21:54;;;;;;;6.62;5.75;;;;;;;19.60;38.08;100201.05;1782509;80;21044;-61
2021/10/20 11:24:21;;;;;;;6.58;5.33;;;;;;;19.60;38.08;100183.54;1727447;80;22068;-61
2021/10/20 11:26:48;;;;;;;6.05;5.42;;;;;;;19.59;38.07;100187.30;1793078;78;21040;-61
2021/10/20 11:29:14;;;;;;;6.45;5.67;;;;;;;19.57;38.10;100169.17;1797470;79;21059;-62